Aeroporto :
LOGIN :

Iscrizione | Disclaimer

   EN    FR    IT 

 










Sommario :    VFR   VFR Marginale   IFR   IFR Intensivo   IFR Molto Intensivo
Visibilità : 
Base nubi : 
>= 8 km
>= 3000ft
5 / 8 km
1000 / 3000 ft
1500m / 5 km
500 / 1000 ft
800 / 1500m
200 / 500 ft
< 800m
< 200 ft
Simboli :   Temporali  Nebbia  Neve Forte  Precipitazioni Forti  Vento > 20 kt
SIGMETs :   Varie  Temporali  Ghiacco  Turbolenza  Onda orograficha  Ceneri Vulcaniche






- Altitudine del aeroporto : 12 ft
- Codice IATA : BCN


LEBL - Barcelone

ULTIMO METAR :
  • 241100Z 21007KT CAVOK 15/10 Q1026 NOSIG

METARs OBSOLETI :
  • 241030Z 22005KT 190V250 CAVOK 15/10 Q1026 NOSIG
  • 241000Z 25005KT 200V290 CAVOK 15/09 Q1026 NOSIG
  • 240930Z 29006KT 220V330 CAVOK 14/08 Q1026 NOSIG
  • 240900Z 30009G19KT 260V350 CAVOK 13/07 Q1027 NOSIG
  • 240830Z 31009KT 240V360 CAVOK 11/06 Q1027 NOSIG

TAF AMD TAF LEBL
Valido dal 24 a 10 ore il 25 a 06 ore UTC


241029Z 2410/2506 20005KT 9000 FEW030 TX19/2413Z TN09/2506Z
TEMPO 2412/2418 20010KT



MetMap, La meteo Aeronautica in un colpo d'occhio ! - Copyright ORBIFLY Dicembre 2007 - Disclaimer

ORBIFLY MET'MAP TEAM :

Programmazione e sviluppo : Alexandra Zaïnal
Concezione : Baudouin d'Aumeries
Aiuto per la programmazione : Marc-Olivier Méhu
Supporto tecnico e logistico : Manuel Goepfert
Aiuto per la traduzione : Arnaldo La Scala

Contatto : metmap@orbifly.com




FONTI E CREDITI :

   NOAA